createdAt,value
2023-09-09T00:02:15.537Z,97691.97
2023-09-09T00:04:44.217Z,97691.97
2023-09-09T00:07:13.034Z,97693.03
2023-09-09T00:09:42.299Z,97696.81
2023-09-09T00:12:10.035Z,97689.13
2023-09-09T00:14:38.473Z,97695.88
2023-09-09T00:17:06.133Z,97695.66
2023-09-09T00:19:35.279Z,97696.09
2023-09-09T00:22:03.110Z,97692.00
2023-09-09T00:24:30.709Z,97695.75
2023-09-09T00:27:00.849Z,97691.41
2023-09-09T00:29:28.507Z,97694.00
2023-09-09T00:31:56.561Z,97700.75
2023-09-09T00:34:24.205Z,97687.06
2023-09-09T00:36:51.837Z,97687.53
2023-09-09T00:39:19.450Z,97690.50
2023-09-09T00:41:47.193Z,97689.91
2023-09-09T00:44:15.106Z,97689.06
2023-09-09T00:46:44.289Z,97689.31
2023-09-09T00:49:12.036Z,97692.25
2023-09-09T00:51:39.886Z,97690.00
2023-09-09T00:54:07.599Z,97686.72
2023-09-09T00:56:35.388Z,97686.94
2023-09-09T00:59:03.294Z,97687.19
2023-09-09T01:01:32.532Z,97682.00
2023-09-09T01:04:00.755Z,97686.84
2023-09-09T01:06:28.730Z,97682.69
2023-09-09T01:08:56.284Z,97679.41
2023-09-09T01:11:23.876Z,97683.19
2023-09-09T01:13:51.491Z,97688.84
2023-09-09T01:16:19.178Z,97681.53
2023-09-09T01:18:48.549Z,97684.50
2023-09-09T01:21:19.356Z,97685.31
2023-09-09T01:23:47.954Z,97684.22
2023-09-09T01:26:15.643Z,97686.72
2023-09-09T01:28:43.346Z,97686.72
2023-09-09T01:31:11.148Z,97690.84
2023-09-09T01:33:38.898Z,97682.97
2023-09-09T01:36:06.782Z,97690.25
2023-09-09T01:38:35.461Z,97690.25
2023-09-09T01:41:06.140Z,97686.72
2023-09-09T01:43:35.784Z,97688.63
2023-09-09T01:46:04.487Z,97685.09
2023-09-09T01:48:32.163Z,97689.91
2023-09-09T01:50:59.871Z,97688.03
2023-09-09T01:53:28.354Z,97692.63
2023-09-09T01:55:59.554Z,97696.16
2023-09-09T01:58:28.134Z,97693.69
2023-09-09T02:00:55.739Z,97693.91
2023-09-09T02:03:23.503Z,97692.84
2023-09-09T02:05:51.167Z,97687.44
2023-09-09T02:08:18.752Z,97691.19
2023-09-09T02:10:51.139Z,97687.06
2023-09-09T02:13:18.762Z,97690.00
2023-09-09T02:15:46.377Z,97685.88
2023-09-09T02:18:13.975Z,97688.00
2023-09-09T02:20:41.558Z,97684.91
2023-09-09T02:23:09.216Z,97680.53
2023-09-09T02:25:38.146Z,97686.44
2023-09-09T02:28:05.995Z,97686.69
2023-09-09T02:30:33.637Z,97682.88
2023-09-09T02:33:01.335Z,97680.19
2023-09-09T02:35:28.988Z,97686.44
2023-09-09T02:37:57.403Z,97682.88
2023-09-09T02:40:25.222Z,97682.31
2023-09-09T02:42:52.800Z,97685.28
2023-09-09T02:45:20.460Z,97682.19
2023-09-09T02:47:48.581Z,97681.59
2023-09-09T02:50:16.263Z,97681.03
2023-09-09T02:52:43.831Z,97680.44
2023-09-09T02:55:11.557Z,97688.19
2023-09-09T02:57:39.201Z,97682.41
2023-09-09T03:00:10.433Z,97678.88
2023-09-09T03:02:38.204Z,97670.50
2023-09-09T03:05:06.484Z,97677.00
2023-09-09T03:07:34.038Z,97676.75
2023-09-09T03:10:01.749Z,97683.22
2023-09-09T03:12:29.710Z,97682.41
2023-09-09T03:14:57.298Z,97674.50
2023-09-09T03:17:24.893Z,97683.94
2023-09-09T03:19:52.553Z,97680.38
2023-09-09T03:22:20.157Z,97685.00
2023-09-09T03:24:48.856Z,97684.75
2023-09-09T03:27:16.466Z,97680.16
2023-09-09T03:29:44.319Z,97673.91
2023-09-09T03:32:13.512Z,97681.22
2023-09-09T03:34:42.100Z,97670.63
2023-09-09T03:37:10.004Z,97674.97
2023-09-09T03:39:37.735Z,97671.44
2023-09-09T03:42:05.869Z,97679.78
2023-09-09T03:44:33.426Z,97675.44
2023-09-09T03:47:01.094Z,97679.19
2023-09-09T03:49:29.284Z,97675.31
2023-09-09T03:51:56.938Z,97665.78
2023-09-09T03:54:24.535Z,97672.50
2023-09-09T03:56:52.235Z,97677.31
2023-09-09T03:59:20.167Z,97675.28
2023-09-09T04:01:47.783Z,97678.47
2023-09-09T04:04:15.392Z,97680.59
2023-09-09T04:06:43.178Z,97677.03
2023-09-09T04:09:10.777Z,97686.47
2023-09-09T04:11:38.965Z,97677.97
2023-09-09T04:14:06.949Z,97682.19
2023-09-09T04:16:34.631Z,97681.00
2023-09-09T04:19:02.512Z,97682.06
2023-09-09T04:21:30.480Z,97681.69
2023-09-09T04:23:58.061Z,97680.47
2023-09-09T04:26:25.880Z,97680.72
2023-09-09T04:28:53.747Z,97680.34
2023-09-09T04:31:21.503Z,97679.97
2023-09-09T04:33:49.464Z,97685.59
2023-09-09T04:36:17.245Z,97686.06
2023-09-09T04:38:44.902Z,97685.72
2023-09-09T04:41:12.450Z,97687.81
2023-09-09T04:43:40.820Z,97690.97
2023-09-09T04:46:08.764Z,97702.25
2023-09-09T04:48:36.794Z,97692.13
2023-09-09T04:51:04.573Z,97694.22
2023-09-09T04:53:32.286Z,97693.84
2023-09-09T04:56:01.668Z,97693.25
2023-09-09T04:58:30.941Z,97694.06
2023-09-09T05:00:59.117Z,97690.75
2023-09-09T05:03:26.894Z,97689.56
2023-09-09T05:05:54.469Z,97692.28
2023-09-09T05:08:22.292Z,97698.97
2023-09-09T05:10:49.907Z,97702.72
2023-09-09T05:13:17.678Z,97703.78
2023-09-09T05:15:45.255Z,97696.94
2023-09-09T05:18:13.005Z,97708.00
2023-09-09T05:20:40.662Z,97706.94
2023-09-09T05:23:08.275Z,97702.34
2023-09-09T05:25:35.959Z,97712.13
2023-09-09T05:28:04.154Z,97701.31
2023-09-09T05:30:31.744Z,97711.06
2023-09-09T05:32:59.505Z,97714.59
2023-09-09T05:35:27.415Z,97711.06
2023-09-09T05:37:55.606Z,97710.84
2023-09-09T05:40:23.393Z,97711.69
2023-09-09T05:42:51.044Z,97713.31
2023-09-09T05:45:18.710Z,97717.69
2023-09-09T05:47:46.898Z,97725.56
2023-09-09T05:50:14.539Z,97728.88
2023-09-09T05:52:43.663Z,97732.44
2023-09-09T05:55:11.832Z,97734.06
2023-09-09T05:57:40.454Z,97731.34
2023-09-09T06:00:10.370Z,97732.81
2023-09-09T06:02:40.654Z,97739.41
2023-09-09T06:05:10.906Z,97739.78
2023-09-09T06:07:41.147Z,97744.56
2023-09-09T06:10:11.148Z,97745.19
2023-09-09T06:12:38.883Z,97739.53
2023-09-09T06:15:07.641Z,97737.44
2023-09-09T06:17:37.412Z,97738.88
2023-09-09T06:20:06.428Z,97741.13
2023-09-09T06:22:35.409Z,97749.63
2023-09-09T06:25:05.467Z,97743.53
2023-09-09T06:27:33.051Z,97739.31
2023-09-09T06:30:00.729Z,97751.34
2023-09-09T06:32:29.228Z,97749.00
2023-09-09T06:34:57.055Z,97752.72
2023-09-09T06:37:25.452Z,97760.16
2023-09-09T06:39:53.075Z,97757.59
2023-09-09T06:42:20.646Z,97758.31
2023-09-09T06:44:52.680Z,97760.34
2023-09-09T06:47:20.276Z,97762.13
2023-09-09T06:49:49.844Z,97760.38
2023-09-09T06:52:17.824Z,97766.75
2023-09-09T06:54:45.390Z,97770.66
2023-09-09T06:57:12.968Z,97771.84
2023-09-09T06:59:41.197Z,97767.38
2023-09-09T07:02:09.012Z,97772.34
2023-09-09T07:04:36.784Z,97773.28
2023-09-09T07:07:12.144Z,97776.16
2023-09-09T07:09:40.955Z,97778.75
2023-09-09T07:12:10.923Z,97776.41
2023-09-09T07:14:41.908Z,97782.81
2023-09-09T07:17:11.022Z,97777.97
2023-09-09T07:19:38.711Z,97778.09
2023-09-09T07:22:07.529Z,97774.09
2023-09-09T07:24:35.241Z,97780.47
2023-09-09T07:27:04.769Z,97779.16
2023-09-09T07:29:32.505Z,97786.63
2023-09-09T07:32:00.231Z,97791.31
2023-09-09T07:34:27.848Z,97785.44
2023-09-09T07:36:55.436Z,97788.25
2023-09-09T07:39:23.303Z,97775.91
2023-09-09T07:41:50.885Z,97778.47
2023-09-09T07:44:18.432Z,97783.19
2023-09-09T07:46:46.065Z,97779.19
2023-09-09T07:49:14.792Z,97787.34
2023-09-09T07:51:42.377Z,97779.28
2023-09-09T07:54:09.946Z,97780.00
2023-09-09T07:56:37.583Z,97781.66
2023-09-09T07:59:05.257Z,97788.00
2023-09-09T08:01:32.897Z,97778.69
2023-09-09T08:04:00.673Z,97789.91
2023-09-09T08:06:28.467Z,97788.38
2023-09-09T08:08:56.341Z,97801.25
2023-09-09T08:11:23.993Z,97795.91
2023-09-09T08:13:51.560Z,97795.09
2023-09-09T08:16:19.185Z,97798.28
2023-09-09T08:18:47.305Z,97803.81
2023-09-09T08:21:15.570Z,97799.22
2023-09-09T08:23:43.420Z,97798.84
2023-09-09T08:26:13.268Z,97807.91
2023-09-09T08:28:41.240Z,97809.06
2023-09-09T08:31:08.885Z,97810.25
2023-09-09T08:33:36.980Z,97812.00
2023-09-09T08:36:05.273Z,97810.34
2023-09-09T08:38:32.947Z,97813.16
2023-09-09T08:41:25.710Z,97806.16
2023-09-09T08:44:19.099Z,97811.50
2023-09-09T08:46:46.817Z,97813.72
2023-09-09T08:49:18.289Z,97813.81
2023-09-09T08:51:57.122Z,97811.69
2023-09-09T08:54:26.724Z,97819.38
2023-09-09T08:56:55.669Z,97817.22
2023-09-09T08:59:23.563Z,97817.06
2023-09-09T09:01:52.608Z,97813.63
2023-09-09T09:04:22.469Z,97813.72
2023-09-09T09:06:51.219Z,97814.88
2023-09-09T09:09:19.012Z,97808.44
2023-09-09T09:11:46.612Z,97807.97
2023-09-09T09:14:14.377Z,97806.41
2023-09-09T09:16:45.110Z,97816.28
2023-09-09T09:19:22.650Z,97812.00
2023-09-09T09:21:51.469Z,97817.53
2023-09-09T09:24:26.954Z,97810.06
2023-09-09T09:26:56.700Z,97815.84
2023-09-09T09:29:24.433Z,97808.59
2023-09-09T09:31:55.373Z,97809.50
2023-09-09T09:34:34.655Z,97813.94
2023-09-09T09:37:13.410Z,97808.00
2023-09-09T09:39:41.292Z,97802.16
2023-09-09T09:42:12.982Z,97800.81
2023-09-09T09:44:40.698Z,97808.22
2023-09-09T09:47:09.997Z,97805.34
2023-09-09T09:49:45.132Z,97802.41
2023-09-09T09:52:24.773Z,97797.53
2023-09-09T09:54:54.301Z,97800.09
2023-09-09T09:57:27.424Z,97798.03
2023-09-09T09:59:54.968Z,97799.75
2023-09-09T10:02:22.670Z,97793.78
2023-09-09T10:04:52.496Z,97805.34
2023-09-09T10:07:24.534Z,97799.94
2023-09-09T10:10:05.411Z,97799.44
2023-09-09T10:12:51.448Z,97794.88
2023-09-09T10:15:21.771Z,97797.16
2023-09-09T10:17:54.152Z,97802.34
2023-09-09T10:20:24.539Z,97800.25
2023-09-09T10:22:59.121Z,97798.66
2023-09-09T10:25:31.419Z,97801.19
2023-09-09T10:28:00.695Z,97791.97
2023-09-09T10:30:29.937Z,97796.72
2023-09-09T10:33:01.126Z,97792.38
2023-09-09T10:35:29.482Z,97790.78
2023-09-09T10:37:58.877Z,97796.31
2023-09-09T10:40:27.671Z,97799.06
2023-09-09T10:42:55.724Z,97788.22
2023-09-09T10:45:31.059Z,97787.69
2023-09-09T10:48:06.989Z,97785.81
2023-09-09T10:50:53.997Z,97785.88
2023-09-09T10:53:31.575Z,97785.94
2023-09-09T10:56:22.106Z,97786.22
2023-09-09T10:58:54.817Z,97795.53
2023-09-09T11:01:24.990Z,97790.91
2023-09-09T11:03:54.137Z,97797.22
2023-09-09T11:06:30.094Z,97792.94
2023-09-09T11:09:03.790Z,97790.00
2023-09-09T11:11:38.469Z,97789.78
2023-09-09T11:14:08.462Z,97789.00
2023-09-09T11:16:38.191Z,97783.00
2023-09-09T11:19:15.182Z,97786.03
2023-09-09T11:21:46.314Z,97784.41
2023-09-09T11:24:14.861Z,97789.09
2023-09-09T11:26:45.941Z,97788.28
2023-09-09T11:29:25.789Z,97785.34
2023-09-09T11:32:03.808Z,97783.47
2023-09-09T11:34:33.559Z,97775.84
2023-09-09T11:37:03.605Z,97778.81
2023-09-09T11:39:31.356Z,97773.09
2023-09-09T11:42:02.110Z,97773.66
2023-09-09T11:44:37.115Z,97774.75
2023-09-09T11:47:04.881Z,97774.50
2023-09-09T11:49:32.473Z,97766.94
2023-09-09T11:52:01.223Z,97769.69
2023-09-09T11:54:28.848Z,97766.97
2023-09-09T11:57:10.724Z,97759.59
2023-09-09T11:59:50.119Z,97759.63
2023-09-09T12:02:25.921Z,97756.66
2023-09-09T12:05:04.982Z,97756.94
2023-09-09T12:07:35.773Z,97760.00
2023-09-09T12:10:08.415Z,97762.53
2023-09-09T12:12:36.298Z,97750.22
2023-09-09T12:15:05.256Z,97755.41
2023-09-09T12:17:32.989Z,97750.78
2023-09-09T12:20:09.291Z,97757.34
2023-09-09T12:22:48.162Z,97756.78
2023-09-09T12:25:36.696Z,97747.50
2023-09-09T12:28:05.029Z,97755.69
2023-09-09T12:30:38.340Z,97744.75
2023-09-09T12:33:12.378Z,97748.84
2023-09-09T12:35:50.974Z,97755.69
2023-09-09T12:38:20.386Z,97751.28
2023-09-09T12:40:49.231Z,97745.47
2023-09-09T12:43:23.109Z,97747.13
2023-09-09T12:46:25.843Z,97754.72
2023-09-09T12:48:59.469Z,97750.03
2023-09-09T12:51:30.349Z,97751.34
2023-09-09T12:53:59.433Z,97753.50
2023-09-09T12:56:27.068Z,97757.00
2023-09-09T12:58:54.659Z,97755.31
2023-09-09T13:01:22.444Z,97761.53
2023-09-09T13:03:50.081Z,97760.16
2023-09-09T13:06:17.635Z,97756.88
2023-09-09T13:08:45.186Z,97752.38
2023-09-09T13:11:12.790Z,97746.50
2023-09-09T13:13:41.199Z,97748.97
2023-09-09T13:16:09.402Z,97743.13
2023-09-09T13:18:37.108Z,97747.44
2023-09-09T13:21:04.987Z,97748.72
2023-09-09T13:23:32.833Z,97742.91
2023-09-09T13:26:00.725Z,97741.19
2023-09-09T13:28:28.311Z,97738.94
2023-09-09T13:30:55.891Z,97735.38
2023-09-09T13:33:23.598Z,97735.28
2023-09-09T13:35:51.214Z,97738.53
2023-09-09T13:38:18.837Z,97736.47
2023-09-09T13:40:46.531Z,97733.84
2023-09-09T13:43:14.207Z,97728.88
2023-09-09T13:45:41.922Z,97730.75
2023-09-09T13:48:09.535Z,97733.78
2023-09-09T13:50:37.185Z,97727.09
2023-09-09T13:53:04.900Z,97727.41
2023-09-09T13:55:32.478Z,97720.66
2023-09-09T13:58:00.023Z,97719.53
2023-09-09T14:00:27.600Z,97724.53
2023-09-09T14:02:55.291Z,97722.13
2023-09-09T14:05:22.991Z,97715.81
2023-09-09T14:07:50.615Z,97724.34
2023-09-09T14:10:18.366Z,97719.97
2023-09-09T14:12:45.927Z,97717.03
2023-09-09T14:15:13.660Z,97718.09
2023-09-09T14:17:41.326Z,97712.00
2023-09-09T14:20:10.048Z,97706.22
2023-09-09T14:22:37.757Z,97703.72
2023-09-09T14:25:06.797Z,97708.59
2023-09-09T14:27:34.487Z,97708.78
2023-09-09T14:30:02.110Z,97703.22
2023-09-09T14:32:29.676Z,97700.94
2023-09-09T14:34:57.259Z,97700.34
2023-09-09T14:37:25.334Z,97698.69
2023-09-09T14:39:52.942Z,97706.94
2023-09-09T14:42:20.468Z,97701.66
2023-09-09T14:44:49.189Z,97711.94
2023-09-09T14:47:16.786Z,97707.03
2023-09-09T14:49:44.406Z,97704.28
2023-09-09T14:52:13.061Z,97701.16
2023-09-09T14:54:40.859Z,97703.84
2023-09-09T14:57:08.553Z,97698.84
2023-09-09T14:59:36.181Z,97702.13
2023-09-09T15:02:04.019Z,97699.66
2023-09-09T15:04:31.769Z,97703.00
2023-09-09T15:06:59.378Z,97698.84
2023-09-09T15:09:26.968Z,97702.41
2023-09-09T15:11:55.020Z,97695.59
2023-09-09T15:14:22.625Z,97704.78
2023-09-09T15:16:59.112Z,97708.66
2023-09-09T15:19:26.728Z,97699.00
2023-09-09T15:21:55.620Z,97697.72
2023-09-09T15:24:23.157Z,97706.28
2023-09-09T15:26:51.681Z,97703.22
2023-09-09T15:29:19.248Z,97707.75
2023-09-09T15:31:46.915Z,97703.81
2023-09-09T15:34:14.566Z,97699.38
2023-09-09T15:36:42.211Z,97699.56
2023-09-09T15:39:11.281Z,97698.75
2023-09-09T15:41:42.052Z,97705.91
2023-09-09T15:44:10.244Z,97700.41
2023-09-09T15:46:39.092Z,97700.94
2023-09-09T15:49:07.143Z,97707.75
2023-09-09T15:51:34.755Z,97702.94
2023-09-09T15:54:02.429Z,97707.94
2023-09-09T15:56:30.048Z,97702.47
2023-09-09T15:58:57.743Z,97707.25
2023-09-09T16:01:25.568Z,97697.44
2023-09-09T16:03:53.281Z,97696.34
2023-09-09T16:06:20.947Z,97694.56
2023-09-09T16:08:49.162Z,97691.34
2023-09-09T16:11:17.409Z,97701.63
2023-09-09T16:13:45.045Z,97688.91
2023-09-09T16:16:14.409Z,97686.47
2023-09-09T16:18:42.555Z,97702.25
2023-09-09T16:21:10.329Z,97687.16
2023-09-09T16:23:38.486Z,97696.06
2023-09-09T16:26:06.530Z,97700.34
2023-09-09T16:28:34.119Z,97703.22
2023-09-09T16:31:05.728Z,97704.69
2023-09-09T16:33:34.217Z,97702.53
2023-09-09T16:36:06.087Z,97704.25
2023-09-09T16:38:34.038Z,97706.19
2023-09-09T16:41:01.711Z,97705.63
2023-09-09T16:43:30.039Z,97709.28
2023-09-09T16:45:57.724Z,97710.97
2023-09-09T16:48:25.540Z,97704.13
2023-09-09T16:50:53.167Z,97707.72
2023-09-09T16:53:22.233Z,97710.81
2023-09-09T16:55:50.528Z,97717.97
2023-09-09T16:58:18.257Z,97711.69
2023-09-09T17:00:49.655Z,97717.84
2023-09-09T17:03:17.828Z,97725.63
2023-09-09T17:05:46.947Z,97719.59
2023-09-09T17:08:14.562Z,97723.72
2023-09-09T17:10:42.936Z,97727.28
2023-09-09T17:13:10.621Z,97730.63
2023-09-09T17:15:41.579Z,97735.31
2023-09-09T17:18:09.857Z,97734.22
2023-09-09T17:20:37.660Z,97735.06
2023-09-09T17:23:05.274Z,97732.09
2023-09-09T17:25:32.931Z,97733.72
2023-09-09T17:28:00.597Z,97730.44
2023-09-09T17:30:31.236Z,97733.50
2023-09-09T17:32:58.864Z,97725.28
2023-09-09T17:35:28.672Z,97731.63
2023-09-09T17:37:56.395Z,97728.91
2023-09-09T17:40:24.057Z,97738.78
2023-09-09T17:42:52.454Z,97736.91
2023-09-09T17:45:21.420Z,97735.28
2023-09-09T17:47:49.073Z,97741.59
2023-09-09T17:50:16.805Z,97748.75
2023-09-09T17:52:44.534Z,97746.84
2023-09-09T17:55:12.829Z,97747.94
2023-09-09T17:57:40.747Z,97742.47
2023-09-09T18:00:09.634Z,97743.88
2023-09-09T18:02:37.632Z,97751.53
2023-09-09T18:05:05.703Z,97753.78
2023-09-09T18:07:33.378Z,97743.09
2023-09-09T18:10:00.980Z,97753.50
2023-09-09T18:12:28.512Z,97757.91
2023-09-09T18:14:57.163Z,97759.53
2023-09-09T18:17:25.093Z,97757.91
2023-09-09T18:19:52.782Z,97759.25
2023-09-09T18:22:20.429Z,97766.09
2023-09-09T18:24:48.017Z,97770.75
2023-09-09T18:27:15.564Z,97770.47
2023-09-09T18:29:43.133Z,97775.38
2023-09-09T18:32:10.741Z,97769.63
2023-09-09T18:34:38.359Z,97774.28
2023-09-09T18:37:06.576Z,97771.47
2023-09-09T18:39:34.493Z,97780.78
2023-09-09T18:42:02.055Z,97779.13
2023-09-09T18:44:29.666Z,97784.81
2023-09-09T18:46:59.371Z,97785.91
2023-09-09T18:49:28.273Z,97787.78
2023-09-09T18:51:56.372Z,97786.69
2023-09-09T18:54:24.309Z,97798.44
2023-09-09T18:56:54.456Z,97793.19
2023-09-09T18:59:22.230Z,97793.44
2023-09-09T19:01:52.600Z,97792.59
2023-09-09T19:04:21.907Z,97802.38
2023-09-09T19:06:49.892Z,97799.34
2023-09-09T19:09:19.044Z,97799.06
2023-09-09T19:11:47.929Z,97800.69
2023-09-09T19:14:15.483Z,97805.03
2023-09-09T19:16:43.141Z,97812.13
2023-09-09T19:19:10.905Z,97802.22
2023-09-09T19:21:38.515Z,97805.50
2023-09-09T19:24:06.310Z,97814.75
2023-09-09T19:26:33.919Z,97810.88
2023-09-09T19:29:01.484Z,97814.66
2023-09-09T19:31:29.202Z,97808.31
2023-09-09T19:33:56.806Z,97808.03
2023-09-09T19:36:24.396Z,97806.91
2023-09-09T19:38:52.028Z,97810.38
2023-09-09T19:41:19.594Z,97805.72
2023-09-09T19:43:47.305Z,97811.94
2023-09-09T19:46:14.884Z,97804.53
2023-09-09T19:48:42.448Z,97810.50
2023-09-09T19:51:10.004Z,97811.88
2023-09-09T19:53:37.649Z,97816.19
2023-09-09T19:56:05.373Z,97814.25
2023-09-09T19:58:33.059Z,97812.03
2023-09-09T20:01:00.770Z,97822.63
2023-09-09T20:03:28.452Z,97813.06
2023-09-09T20:05:56.155Z,97814.91
2023-09-09T20:08:23.752Z,97814.63
2023-09-09T20:10:54.860Z,97817.03
2023-09-09T20:13:24.305Z,97811.25
2023-09-09T20:15:56.104Z,97816.16
2023-09-09T20:18:23.834Z,97812.28
2023-09-09T20:20:52.126Z,97801.06
2023-09-09T20:23:20.808Z,97806.19
2023-09-09T20:25:49.773Z,97803.16
2023-09-09T20:28:17.481Z,97806.94
2023-09-09T20:30:45.153Z,97807.44
2023-09-09T20:33:12.852Z,97817.53
2023-09-09T20:35:40.576Z,97809.91
2023-09-09T20:38:09.447Z,97811.50
2023-09-09T20:40:37.301Z,97810.88
2023-09-09T20:43:05.173Z,97814.16
2023-09-09T20:45:32.717Z,97817.38
2023-09-09T20:48:00.340Z,97813.50
2023-09-09T20:50:29.863Z,97813.75
2023-09-09T20:52:57.463Z,97815.91
2023-09-09T20:55:25.131Z,97810.97
2023-09-09T20:57:52.978Z,97807.94
2023-09-09T21:00:20.848Z,97810.34
2023-09-09T21:02:53.547Z,97815.72
2023-09-09T21:05:21.938Z,97815.44
2023-09-09T21:07:50.222Z,97812.38
2023-09-09T21:10:19.168Z,97812.06
2023-09-09T21:12:48.648Z,97813.38
2023-09-09T21:15:17.933Z,97814.13
2023-09-09T21:17:46.398Z,97808.13
2023-09-09T21:20:14.605Z,97809.22
2023-09-09T21:22:42.316Z,97815.94
2023-09-09T21:25:12.911Z,97815.34
2023-09-09T21:27:40.528Z,97807.72
2023-09-09T21:30:08.639Z,97809.34
2023-09-09T21:32:36.348Z,97814.69
2023-09-09T21:35:04.368Z,97809.78
2023-09-09T21:37:32.594Z,97814.41
2023-09-09T21:40:00.234Z,97807.53
2023-09-09T21:42:27.784Z,97811.13
2023-09-09T21:44:56.585Z,97810.78
2023-09-09T21:47:24.499Z,97808.31
2023-09-09T21:49:53.918Z,97813.66
2023-09-09T21:52:21.948Z,97806.00
2023-09-09T21:54:49.579Z,97811.69
2023-09-09T21:57:17.183Z,97806.75
2023-09-09T21:59:44.875Z,97801.81
2023-09-09T22:02:12.764Z,97809.66
2023-09-09T22:04:40.542Z,97809.09
2023-09-09T22:07:08.625Z,97806.59
2023-09-09T22:09:36.349Z,97805.78
2023-09-09T22:12:04.901Z,97810.66
2023-09-09T22:14:32.576Z,97813.63
2023-09-09T22:17:03.231Z,97810.56
2023-09-09T22:19:30.929Z,97805.59
2023-09-09T22:21:58.546Z,97810.47
2023-09-09T22:24:26.176Z,97816.44
2023-09-09T22:26:57.111Z,97811.47
2023-09-09T22:29:24.787Z,97809.25
2023-09-09T22:31:52.352Z,97801.34
2023-09-09T22:34:19.993Z,97801.56
2023-09-09T22:36:47.594Z,97795.53
2023-09-09T22:39:15.289Z,97802.53
2023-09-09T22:41:42.850Z,97800.06
2023-09-09T22:44:10.493Z,97799.47
2023-09-09T22:46:38.182Z,97791.00
2023-09-09T22:49:05.904Z,97798.56
2023-09-09T22:51:33.557Z,97794.47
2023-09-09T22:54:01.181Z,97793.03
2023-09-09T22:56:28.778Z,97792.72
2023-09-09T22:58:56.392Z,97800.28
2023-09-09T23:01:23.961Z,97794.53
2023-09-09T23:03:51.649Z,97799.13
2023-09-09T23:06:19.343Z,97798.06
2023-09-09T23:08:46.919Z,97794.53
2023-09-09T23:11:15.134Z,97793.09
2023-09-09T23:13:43.194Z,97800.44
2023-09-09T23:16:11.141Z,97798.81
2023-09-09T23:18:39.822Z,97797.38
2023-09-09T23:21:07.655Z,97798.72
2023-09-09T23:23:35.274Z,97795.41
2023-09-09T23:26:03.921Z,97799.19
2023-09-09T23:28:31.682Z,97796.72
2023-09-09T23:31:01.382Z,97797.78
2023-09-09T23:33:32.464Z,97798.84
2023-09-09T23:36:07.208Z,97794.50
2023-09-09T23:38:35.005Z,97800.19
2023-09-09T23:41:03.445Z,97790.63
2023-09-09T23:43:31.227Z,97786.47
2023-09-09T23:45:58.911Z,97785.66
2023-09-09T23:48:26.606Z,97794.31
2023-09-09T23:50:54.188Z,97792.91
2023-09-09T23:53:22.504Z,97790.69
2023-09-09T23:55:50.780Z,97795.53
2023-09-09T23:58:18.531Z,97792.25
